sensor_id;sensor_type;location;lat;lon;timestamp;temperature;humidity
17495;DHT22;8864;51.970;4.614;2022-08-01T00:01:24;25.60;68.80
17495;DHT22;8864;51.970;4.614;2022-08-01T00:03:51;25.60;68.90
17495;DHT22;8864;51.970;4.614;2022-08-01T00:06:19;25.60;68.90
17495;DHT22;8864;51.970;4.614;2022-08-01T00:08:46;25.60;68.80
17495;DHT22;8864;51.970;4.614;2022-08-01T00:11:13;25.60;68.80
17495;DHT22;8864;51.970;4.614;2022-08-01T00:13:39;25.60;68.80
17495;DHT22;8864;51.970;4.614;2022-08-01T00:16:06;25.60;68.70
17495;DHT22;8864;51.970;4.614;2022-08-01T00:18:33;25.60;68.80
17495;DHT22;8864;51.970;4.614;2022-08-01T00:21:01;25.60;68.60
17495;DHT22;8864;51.970;4.614;2022-08-01T00:23:29;25.60;68.70
17495;DHT22;8864;51.970;4.614;2022-08-01T00:25:56;25.60;68.70
17495;DHT22;8864;51.970;4.614;2022-08-01T00:28:23;25.60;68.60
17495;DHT22;8864;51.970;4.614;2022-08-01T00:30:49;25.60;68.60
17495;DHT22;8864;51.970;4.614;2022-08-01T00:33:16;25.60;68.60
17495;DHT22;8864;51.970;4.614;2022-08-01T00:35:43;25.60;68.60
17495;DHT22;8864;51.970;4.614;2022-08-01T00:38:10;25.60;68.60
17495;DHT22;8864;51.970;4.614;2022-08-01T00:40:38;25.60;68.60
17495;DHT22;8864;51.970;4.614;2022-08-01T00:43:05;25.60;68.60
17495;DHT22;8864;51.970;4.614;2022-08-01T00:45:32;25.60;68.50
17495;DHT22;8864;51.970;4.614;2022-08-01T00:47:59;25.60;68.60
17495;DHT22;8864;51.970;4.614;2022-08-01T00:50:25;25.60;68.50
17495;DHT22;8864;51.970;4.614;2022-08-01T00:52:53;25.60;68.50
17495;DHT22;8864;51.970;4.614;2022-08-01T00:55:21;25.60;68.50
17495;DHT22;8864;51.970;4.614;2022-08-01T00:57:49;25.60;68.50
17495;DHT22;8864;51.970;4.614;2022-08-01T01:00:16;25.60;68.60
17495;DHT22;8864;51.970;4.614;2022-08-01T01:02:43;25.60;69.40
17495;DHT22;8864;51.970;4.614;2022-08-01T01:05:10;25.50;68.50
17495;DHT22;8864;51.970;4.614;2022-08-01T01:07:46;25.60;68.60
17495;DHT22;8864;51.970;4.614;2022-08-01T01:10:19;25.60;68.70
17495;DHT22;8864;51.970;4.614;2022-08-01T01:12:55;25.60;68.80
17495;DHT22;8864;51.970;4.614;2022-08-01T01:15:28;25.50;68.70
17495;DHT22;8864;51.970;4.614;2022-08-01T01:18:02;25.60;68.90
17495;DHT22;8864;51.970;4.614;2022-08-01T01:20:33;25.50;68.80
17495;DHT22;8864;51.970;4.614;2022-08-01T01:23:36;25.50;69.00
17495;DHT22;8864;51.970;4.614;2022-08-01T01:26:26;25.50;69.20
17495;DHT22;8864;51.970;4.614;2022-08-01T01:29:02;25.50;69.20
17495;DHT22;8864;51.970;4.614;2022-08-01T01:31:32;25.50;69.50
17495;DHT22;8864;51.970;4.614;2022-08-01T01:34:02;25.50;69.70
17495;DHT22;8864;51.970;4.614;2022-08-01T01:36:30;25.50;70.00
17495;DHT22;8864;51.970;4.614;2022-08-01T01:38:59;25.50;70.00
17495;DHT22;8864;51.970;4.614;2022-08-01T01:41:28;25.50;70.10
17495;DHT22;8864;51.970;4.614;2022-08-01T01:43:55;25.50;70.00
17495;DHT22;8864;51.970;4.614;2022-08-01T01:46:24;25.50;69.80
17495;DHT22;8864;51.970;4.614;2022-08-01T01:48:54;25.50;69.80
17495;DHT22;8864;51.970;4.614;2022-08-01T01:51:22;25.50;69.80
17495;DHT22;8864;51.970;4.614;2022-08-01T01:53:51;25.50;69.80
17495;DHT22;8864;51.970;4.614;2022-08-01T01:56:19;25.50;69.60
17495;DHT22;8864;51.970;4.614;2022-08-01T01:58:49;25.50;69.60
17495;DHT22;8864;51.970;4.614;2022-08-01T02:01:18;25.50;69.60
17495;DHT22;8864;51.970;4.614;2022-08-01T02:03:48;25.50;69.50
17495;DHT22;8864;51.970;4.614;2022-08-01T02:06:16;25.50;69.50
17495;DHT22;8864;51.970;4.614;2022-08-01T02:08:44;25.50;69.50
17495;DHT22;8864;51.970;4.614;2022-08-01T02:11:11;25.50;69.50
17495;DHT22;8864;51.970;4.614;2022-08-01T02:13:48;25.50;69.50
17495;DHT22;8864;51.970;4.614;2022-08-01T02:16:16;25.50;69.50
17495;DHT22;8864;51.970;4.614;2022-08-01T02:18:44;25.50;69.50
17495;DHT22;8864;51.970;4.614;2022-08-01T02:21:16;25.50;69.60
17495;DHT22;8864;51.970;4.614;2022-08-01T02:23:44;25.50;69.50
17495;DHT22;8864;51.970;4.614;2022-08-01T02:26:14;25.50;69.60
17495;DHT22;8864;51.970;4.614;2022-08-01T02:28:47;25.50;69.60
17495;DHT22;8864;51.970;4.614;2022-08-01T02:31:19;25.50;69.70
17495;DHT22;8864;51.970;4.614;2022-08-01T02:33:53;25.50;69.60
17495;DHT22;8864;51.970;4.614;2022-08-01T02:36:24;25.50;69.60
17495;DHT22;8864;51.970;4.614;2022-08-01T02:38:54;25.50;69.60
17495;DHT22;8864;51.970;4.614;2022-08-01T02:41:22;25.50;69.60
17495;DHT22;8864;51.970;4.614;2022-08-01T02:43:52;25.50;69.60
17495;DHT22;8864;51.970;4.614;2022-08-01T02:46:22;25.50;69.60
17495;DHT22;8864;51.970;4.614;2022-08-01T02:48:52;25.50;69.70
17495;DHT22;8864;51.970;4.614;2022-08-01T02:51:26;25.40;69.50
17495;DHT22;8864;51.970;4.614;2022-08-01T02:53:55;25.50;69.60
17495;DHT22;8864;51.970;4.614;2022-08-01T02:56:24;25.50;69.50
17495;DHT22;8864;51.970;4.614;2022-08-01T02:59:01;25.40;69.60
17495;DHT22;8864;51.970;4.614;2022-08-01T03:01:29;25.50;69.50
17495;DHT22;8864;51.970;4.614;2022-08-01T03:03:57;25.40;69.50
17495;DHT22;8864;51.970;4.614;2022-08-01T03:06:26;25.40;69.70
17495;DHT22;8864;51.970;4.614;2022-08-01T03:08:53;25.50;69.80
17495;DHT22;8864;51.970;4.614;2022-08-01T03:11:23;25.40;69.70
17495;DHT22;8864;51.970;4.614;2022-08-01T03:13:52;25.40;69.50
17495;DHT22;8864;51.970;4.614;2022-08-01T03:16:20;25.40;69.50
17495;DHT22;8864;51.970;4.614;2022-08-01T03:18:49;25.40;69.40
17495;DHT22;8864;51.970;4.614;2022-08-01T03:21:19;25.40;69.50
17495;DHT22;8864;51.970;4.614;2022-08-01T03:23:50;25.40;69.50
17495;DHT22;8864;51.970;4.614;2022-08-01T03:26:24;25.40;69.50
17495;DHT22;8864;51.970;4.614;2022-08-01T03:28:52;25.40;69.30
17495;DHT22;8864;51.970;4.614;2022-08-01T03:31:22;25.40;69.30
17495;DHT22;8864;51.970;4.614;2022-08-01T03:33:49;25.40;69.30
17495;DHT22;8864;51.970;4.614;2022-08-01T03:36:16;25.40;69.30
17495;DHT22;8864;51.970;4.614;2022-08-01T03:38:48;25.40;69.40
17495;DHT22;8864;51.970;4.614;2022-08-01T03:41:21;25.40;69.30
17495;DHT22;8864;51.970;4.614;2022-08-01T03:43:54;25.40;69.30
17495;DHT22;8864;51.970;4.614;2022-08-01T03:46:27;25.40;69.30
17495;DHT22;8864;51.970;4.614;2022-08-01T03:48:58;25.40;69.30
17495;DHT22;8864;51.970;4.614;2022-08-01T03:51:27;25.40;69.30
17495;DHT22;8864;51.970;4.614;2022-08-01T03:54:00;25.40;69.20
17495;DHT22;8864;51.970;4.614;2022-08-01T03:56:27;25.40;69.30
17495;DHT22;8864;51.970;4.614;2022-08-01T03:58:58;25.40;69.30
17495;DHT22;8864;51.970;4.614;2022-08-01T04:01:26;25.40;69.30
17495;DHT22;8864;51.970;4.614;2022-08-01T04:03:53;25.40;69.30
17495;DHT22;8864;51.970;4.614;2022-08-01T04:06:20;25.40;69.20
17495;DHT22;8864;51.970;4.614;2022-08-01T04:08:47;25.40;69.30
17495;DHT22;8864;51.970;4.614;2022-08-01T04:11:24;25.40;69.20
17495;DHT22;8864;51.970;4.614;2022-08-01T04:13:52;25.40;69.20
17495;DHT22;8864;51.970;4.614;2022-08-01T04:16:19;25.40;69.30
17495;DHT22;8864;51.970;4.614;2022-08-01T04:18:46;25.40;69.30
17495;DHT22;8864;51.970;4.614;2022-08-01T04:21:13;25.40;69.20
17495;DHT22;8864;51.970;4.614;2022-08-01T04:23:41;25.40;69.20
17495;DHT22;8864;51.970;4.614;2022-08-01T04:26:11;25.40;69.20
17495;DHT22;8864;51.970;4.614;2022-08-01T04:28:41;25.40;69.30
17495;DHT22;8864;51.970;4.614;2022-08-01T04:31:10;25.40;69.30
17495;DHT22;8864;51.970;4.614;2022-08-01T04:33:42;25.40;69.30
17495;DHT22;8864;51.970;4.614;2022-08-01T04:36:12;25.40;69.40
17495;DHT22;8864;51.970;4.614;2022-08-01T04:38:42;25.40;69.30
17495;DHT22;8864;51.970;4.614;2022-08-01T04:41:13;25.40;69.20
17495;DHT22;8864;51.970;4.614;2022-08-01T04:43:42;25.40;69.20
17495;DHT22;8864;51.970;4.614;2022-08-01T04:46:09;25.40;69.20
17495;DHT22;8864;51.970;4.614;2022-08-01T04:48:38;25.40;69.20
17495;DHT22;8864;51.970;4.614;2022-08-01T04:51:12;25.40;69.20
17495;DHT22;8864;51.970;4.614;2022-08-01T04:53:40;25.40;69.20
17495;DHT22;8864;51.970;4.614;2022-08-01T04:56:07;25.40;69.10
17495;DHT22;8864;51.970;4.614;2022-08-01T04:58:34;25.40;69.10
17495;DHT22;8864;51.970;4.614;2022-08-01T05:01:02;25.40;69.20
17495;DHT22;8864;51.970;4.614;2022-08-01T05:03:29;25.40;69.00
17495;DHT22;8864;51.970;4.614;2022-08-01T05:05:56;25.40;69.10
17495;DHT22;8864;51.970;4.614;2022-08-01T05:08:22;25.40;69.00
17495;DHT22;8864;51.970;4.614;2022-08-01T05:10:50;25.40;68.90
17495;DHT22;8864;51.970;4.614;2022-08-01T05:13:16;25.40;69.00
17495;DHT22;8864;51.970;4.614;2022-08-01T05:15:43;25.40;68.90
17495;DHT22;8864;51.970;4.614;2022-08-01T05:18:11;25.40;69.00
17495;DHT22;8864;51.970;4.614;2022-08-01T05:20:38;25.40;68.90
17495;DHT22;8864;51.970;4.614;2022-08-01T05:23:05;25.40;68.90
17495;DHT22;8864;51.970;4.614;2022-08-01T05:25:32;25.40;69.00
17495;DHT22;8864;51.970;4.614;2022-08-01T05:27:59;25.40;69.20
17495;DHT22;8864;51.970;4.614;2022-08-01T05:30:26;25.40;69.40
17495;DHT22;8864;51.970;4.614;2022-08-01T05:32:54;25.40;69.30
17495;DHT22;8864;51.970;4.614;2022-08-01T05:35:22;25.40;69.30
17495;DHT22;8864;51.970;4.614;2022-08-01T05:37:49;25.40;69.40
17495;DHT22;8864;51.970;4.614;2022-08-01T05:40:16;25.40;69.30
17495;DHT22;8864;51.970;4.614;2022-08-01T05:42:43;25.40;69.50
17495;DHT22;8864;51.970;4.614;2022-08-01T05:45:10;25.40;69.50
17495;DHT22;8864;51.970;4.614;2022-08-01T05:47:37;25.40;69.30
17495;DHT22;8864;51.970;4.614;2022-08-01T05:50:04;25.40;69.30
17495;DHT22;8864;51.970;4.614;2022-08-01T05:52:33;25.30;69.30
17495;DHT22;8864;51.970;4.614;2022-08-01T05:54:59;25.30;69.40
17495;DHT22;8864;51.970;4.614;2022-08-01T05:57:26;25.30;69.40
17495;DHT22;8864;51.970;4.614;2022-08-01T05:59:53;25.30;69.50
17495;DHT22;8864;51.970;4.614;2022-08-01T06:02:20;25.30;69.50
17495;DHT22;8864;51.970;4.614;2022-08-01T06:04:47;25.30;69.60
17495;DHT22;8864;51.970;4.614;2022-08-01T06:07:16;25.30;69.80
17495;DHT22;8864;51.970;4.614;2022-08-01T06:09:44;25.30;70.50
17495;DHT22;8864;51.970;4.614;2022-08-01T06:12:11;25.30;69.90
17495;DHT22;8864;51.970;4.614;2022-08-01T06:14:37;25.30;70.00
17495;DHT22;8864;51.970;4.614;2022-08-01T06:17:04;25.30;70.00
17495;DHT22;8864;51.970;4.614;2022-08-01T06:19:31;25.30;70.30
17495;DHT22;8864;51.970;4.614;2022-08-01T06:21:58;25.30;70.30
17495;DHT22;8864;51.970;4.614;2022-08-01T06:24:25;25.30;70.40
17495;DHT22;8864;51.970;4.614;2022-08-01T06:26:53;25.30;70.30
17495;DHT22;8864;51.970;4.614;2022-08-01T06:29:20;25.30;70.40
17495;DHT22;8864;51.970;4.614;2022-08-01T06:31:47;25.30;70.30
17495;DHT22;8864;51.970;4.614;2022-08-01T06:34:13;25.30;70.50
17495;DHT22;8864;51.970;4.614;2022-08-01T06:36:41;25.30;70.50
17495;DHT22;8864;51.970;4.614;2022-08-01T06:39:07;25.30;70.50
17495;DHT22;8864;51.970;4.614;2022-08-01T06:41:34;25.30;70.50
17495;DHT22;8864;51.970;4.614;2022-08-01T06:44:03;25.30;70.60
17495;DHT22;8864;51.970;4.614;2022-08-01T06:46:30;25.30;70.80
17495;DHT22;8864;51.970;4.614;2022-08-01T06:48:57;25.30;70.60
17495;DHT22;8864;51.970;4.614;2022-08-01T06:51:24;25.30;70.80
17495;DHT22;8864;51.970;4.614;2022-08-01T06:53:50;25.30;70.80
17495;DHT22;8864;51.970;4.614;2022-08-01T06:56:19;25.30;70.80
17495;DHT22;8864;51.970;4.614;2022-08-01T06:58:45;25.30;70.80
17495;DHT22;8864;51.970;4.614;2022-08-01T07:01:13;25.30;71.00
17495;DHT22;8864;51.970;4.614;2022-08-01T07:03:40;25.30;71.00
17495;DHT22;8864;51.970;4.614;2022-08-01T07:06:07;25.30;71.30
17495;DHT22;8864;51.970;4.614;2022-08-01T07:08:35;25.30;71.60
17495;DHT22;8864;51.970;4.614;2022-08-01T07:11:01;25.30;71.30
17495;DHT22;8864;51.970;4.614;2022-08-01T07:13:28;25.30;71.30
17495;DHT22;8864;51.970;4.614;2022-08-01T07:15:56;25.30;71.90
17495;DHT22;8864;51.970;4.614;2022-08-01T07:18:25;25.30;72.00
17495;DHT22;8864;51.970;4.614;2022-08-01T07:20:52;25.30;71.70
17495;DHT22;8864;51.970;4.614;2022-08-01T07:23:25;25.30;72.50
17495;DHT22;8864;51.970;4.614;2022-08-01T07:25:52;25.30;71.70
17495;DHT22;8864;51.970;4.614;2022-08-01T07:28:19;25.30;71.60
17495;DHT22;8864;51.970;4.614;2022-08-01T07:30:46;25.30;72.30
17495;DHT22;8864;51.970;4.614;2022-08-01T07:33:13;25.30;72.90
17495;DHT22;8864;51.970;4.614;2022-08-01T07:35:41;25.40;73.50
17495;DHT22;8864;51.970;4.614;2022-08-01T07:38:08;25.40;73.50
17495;DHT22;8864;51.970;4.614;2022-08-01T07:40:35;25.40;73.20
17495;DHT22;8864;51.970;4.614;2022-08-01T07:43:02;25.40;73.20
17495;DHT22;8864;51.970;4.614;2022-08-01T07:45:29;25.50;73.00
17495;DHT22;8864;51.970;4.614;2022-08-01T07:47:57;25.50;72.80
17495;DHT22;8864;51.970;4.614;2022-08-01T07:50:29;25.50;72.60
17495;DHT22;8864;51.970;4.614;2022-08-01T07:52:57;25.50;72.50
17495;DHT22;8864;51.970;4.614;2022-08-01T07:55:24;25.50;72.30
17495;DHT22;8864;51.970;4.614;2022-08-01T07:57:51;25.50;72.30
17495;DHT22;8864;51.970;4.614;2022-08-01T08:00:18;25.40;72.40
17495;DHT22;8864;51.970;4.614;2022-08-01T08:02:45;25.40;72.60
17495;DHT22;8864;51.970;4.614;2022-08-01T08:05:12;25.40;72.90
17495;DHT22;8864;51.970;4.614;2022-08-01T08:07:39;25.40;72.70
17495;DHT22;8864;51.970;4.614;2022-08-01T08:10:08;25.40;72.60
17495;DHT22;8864;51.970;4.614;2022-08-01T08:12:35;25.40;72.40
17495;DHT22;8864;51.970;4.614;2022-08-01T08:15:03;25.40;72.40
17495;DHT22;8864;51.970;4.614;2022-08-01T08:17:31;25.40;72.30
17495;DHT22;8864;51.970;4.614;2022-08-01T08:19:59;25.40;72.10
17495;DHT22;8864;51.970;4.614;2022-08-01T08:22:26;25.40;72.10
17495;DHT22;8864;51.970;4.614;2022-08-01T08:24:53;25.40;72.00
17495;DHT22;8864;51.970;4.614;2022-08-01T08:27:21;25.40;71.80
17495;DHT22;8864;51.970;4.614;2022-08-01T08:29:48;25.50;71.40
17495;DHT22;8864;51.970;4.614;2022-08-01T08:32:14;25.40;70.90
17495;DHT22;8864;51.970;4.614;2022-08-01T08:34:41;25.40;70.70
17495;DHT22;8864;51.970;4.614;2022-08-01T08:37:08;25.40;70.70
17495;DHT22;8864;51.970;4.614;2022-08-01T08:39:35;25.40;70.70
17495;DHT22;8864;51.970;4.614;2022-08-01T08:42:06;25.40;70.70
17495;DHT22;8864;51.970;4.614;2022-08-01T08:44:34;25.40;70.70
17495;DHT22;8864;51.970;4.614;2022-08-01T08:47:02;25.50;70.70
17495;DHT22;8864;51.970;4.614;2022-08-01T08:49:31;25.50;70.60
17495;DHT22;8864;51.970;4.614;2022-08-01T08:51:59;25.50;70.40
17495;DHT22;8864;51.970;4.614;2022-08-01T08:54:28;25.50;70.30
17495;DHT22;8864;51.970;4.614;2022-08-01T08:56:55;25.50;70.30
17495;DHT22;8864;51.970;4.614;2022-08-01T08:59:22;25.50;70.10
17495;DHT22;8864;51.970;4.614;2022-08-01T09:01:52;25.50;70.10
17495;DHT22;8864;51.970;4.614;2022-08-01T09:04:20;25.50;70.00
17495;DHT22;8864;51.970;4.614;2022-08-01T09:06:48;25.50;69.90
17495;DHT22;8864;51.970;4.614;2022-08-01T09:09:15;25.50;69.80
17495;DHT22;8864;51.970;4.614;2022-08-01T09:11:42;25.50;69.50
17495;DHT22;8864;51.970;4.614;2022-08-01T09:14:11;25.50;69.30
17495;DHT22;8864;51.970;4.614;2022-08-01T09:16:42;25.50;69.30
17495;DHT22;8864;51.970;4.614;2022-08-01T09:19:13;25.50;69.20
17495;DHT22;8864;51.970;4.614;2022-08-01T09:21:40;25.50;68.90
17495;DHT22;8864;51.970;4.614;2022-08-01T09:24:21;25.50;68.70
17495;DHT22;8864;51.970;4.614;2022-08-01T09:26:47;25.50;68.60
17495;DHT22;8864;51.970;4.614;2022-08-01T09:29:20;25.50;68.40
17495;DHT22;8864;51.970;4.614;2022-08-01T09:31:48;25.50;68.60
17495;DHT22;8864;51.970;4.614;2022-08-01T09:34:24;25.50;68.20
17495;DHT22;8864;51.970;4.614;2022-08-01T09:36:52;25.40;67.70
17495;DHT22;8864;51.970;4.614;2022-08-01T09:39:22;25.40;67.20
17495;DHT22;8864;51.970;4.614;2022-08-01T09:41:49;25.30;67.10
17495;DHT22;8864;51.970;4.614;2022-08-01T09:44:17;25.20;67.40
17495;DHT22;8864;51.970;4.614;2022-08-01T09:46:50;25.10;67.90
17495;DHT22;8864;51.970;4.614;2022-08-01T09:49:29;25.10;67.60
17495;DHT22;8864;51.970;4.614;2022-08-01T09:51:57;25.00;67.10
17495;DHT22;8864;51.970;4.614;2022-08-01T09:54:31;25.00;67.60
17495;DHT22;8864;51.970;4.614;2022-08-01T09:57:09;24.90;67.70
17495;DHT22;8864;51.970;4.614;2022-08-01T09:59:37;24.90;67.60
17495;DHT22;8864;51.970;4.614;2022-08-01T10:02:07;24.80;67.60
17495;DHT22;8864;51.970;4.614;2022-08-01T10:04:37;24.80;67.30
17495;DHT22;8864;51.970;4.614;2022-08-01T10:07:05;24.80;67.10
17495;DHT22;8864;51.970;4.614;2022-08-01T10:09:35;24.70;66.90
17495;DHT22;8864;51.970;4.614;2022-08-01T10:12:03;24.70;66.90
17495;DHT22;8864;51.970;4.614;2022-08-01T10:14:31;24.70;66.50
17495;DHT22;8864;51.970;4.614;2022-08-01T10:16:59;24.80;66.40
17495;DHT22;8864;51.970;4.614;2022-08-01T10:19:28;24.80;66.50
17495;DHT22;8864;51.970;4.614;2022-08-01T10:21:57;24.80;66.40
17495;DHT22;8864;51.970;4.614;2022-08-01T10:24:26;24.80;65.90
17495;DHT22;8864;51.970;4.614;2022-08-01T10:26:57;24.90;66.30
17495;DHT22;8864;51.970;4.614;2022-08-01T10:29:31;24.90;66.20
17495;DHT22;8864;51.970;4.614;2022-08-01T10:31:58;24.80;66.30
17495;DHT22;8864;51.970;4.614;2022-08-01T10:34:25;24.80;66.00
17495;DHT22;8864;51.970;4.614;2022-08-01T10:36:53;24.90;66.40
17495;DHT22;8864;51.970;4.614;2022-08-01T10:39:21;24.90;66.50
17495;DHT22;8864;51.970;4.614;2022-08-01T10:41:49;24.90;66.30
17495;DHT22;8864;51.970;4.614;2022-08-01T10:44:17;24.90;66.00
17495;DHT22;8864;51.970;4.614;2022-08-01T10:46:48;24.90;65.80
17495;DHT22;8864;51.970;4.614;2022-08-01T10:49:17;24.90;65.60
17495;DHT22;8864;51.970;4.614;2022-08-01T10:51:46;24.90;65.40
17495;DHT22;8864;51.970;4.614;2022-08-01T10:54:13;24.90;65.70
17495;DHT22;8864;51.970;4.614;2022-08-01T10:56:44;25.00;65.10
17495;DHT22;8864;51.970;4.614;2022-08-01T10:59:15;25.00;64.90
17495;DHT22;8864;51.970;4.614;2022-08-01T11:01:42;25.00;65.30
17495;DHT22;8864;51.970;4.614;2022-08-01T11:04:11;25.00;65.00
17495;DHT22;8864;51.970;4.614;2022-08-01T11:06:47;25.10;65.50
17495;DHT22;8864;51.970;4.614;2022-08-01T11:09:38;25.00;65.30
17495;DHT22;8864;51.970;4.614;2022-08-01T11:12:10;25.10;64.90
17495;DHT22;8864;51.970;4.614;2022-08-01T11:17:43;25.20;65.30
17495;DHT22;8864;51.970;4.614;2022-08-01T11:20:14;25.20;65.80
17495;DHT22;8864;51.970;4.614;2022-08-01T11:26:10;25.20;65.20
17495;DHT22;8864;51.970;4.614;2022-08-01T11:28:39;25.10;65.00
17495;DHT22;8864;51.970;4.614;2022-08-01T11:31:28;24.90;64.50
17495;DHT22;8864;51.970;4.614;2022-08-01T11:33:55;25.00;64.60
17495;DHT22;8864;51.970;4.614;2022-08-01T11:36:22;25.00;64.70
17495;DHT22;8864;51.970;4.614;2022-08-01T11:39:10;25.00;64.70
17495;DHT22;8864;51.970;4.614;2022-08-01T11:41:37;25.10;64.60
17495;DHT22;8864;51.970;4.614;2022-08-01T11:44:08;25.10;64.50
17495;DHT22;8864;51.970;4.614;2022-08-01T11:46:58;25.10;64.60
17495;DHT22;8864;51.970;4.614;2022-08-01T11:49:37;25.10;64.00
17495;DHT22;8864;51.970;4.614;2022-08-01T11:52:13;25.20;64.10
17495;DHT22;8864;51.970;4.614;2022-08-01T11:54:42;25.20;63.60
17495;DHT22;8864;51.970;4.614;2022-08-01T11:57:10;25.20;63.90
17495;DHT22;8864;51.970;4.614;2022-08-01T11:59:41;25.20;63.90
17495;DHT22;8864;51.970;4.614;2022-08-01T12:02:24;25.20;63.60
17495;DHT22;8864;51.970;4.614;2022-08-01T12:04:54;25.20;63.30
17495;DHT22;8864;51.970;4.614;2022-08-01T12:07:22;25.30;63.30
17495;DHT22;8864;51.970;4.614;2022-08-01T12:09:57;25.30;63.20
17495;DHT22;8864;51.970;4.614;2022-08-01T12:12:24;25.30;63.00
17495;DHT22;8864;51.970;4.614;2022-08-01T12:14:57;25.40;63.30
17495;DHT22;8864;51.970;4.614;2022-08-01T12:17:32;25.40;62.60
17495;DHT22;8864;51.970;4.614;2022-08-01T12:19:59;25.40;61.10
17495;DHT22;8864;51.970;4.614;2022-08-01T12:22:26;25.40;59.50
17495;DHT22;8864;51.970;4.614;2022-08-01T12:24:53;25.50;59.10
17495;DHT22;8864;51.970;4.614;2022-08-01T12:27:24;25.50;59.30
17495;DHT22;8864;51.970;4.614;2022-08-01T12:29:51;25.50;59.50
17495;DHT22;8864;51.970;4.614;2022-08-01T12:32:24;25.50;60.60
17495;DHT22;8864;51.970;4.614;2022-08-01T12:34:52;25.50;60.70
17495;DHT22;8864;51.970;4.614;2022-08-01T12:37:19;25.40;60.60
17495;DHT22;8864;51.970;4.614;2022-08-01T12:39:46;25.40;60.60
17495;DHT22;8864;51.970;4.614;2022-08-01T12:42:14;25.40;60.40
17495;DHT22;8864;51.970;4.614;2022-08-01T12:44:44;25.40;59.90
17495;DHT22;8864;51.970;4.614;2022-08-01T12:47:12;25.40;59.80
17495;DHT22;8864;51.970;4.614;2022-08-01T12:49:42;25.40;60.10
17495;DHT22;8864;51.970;4.614;2022-08-01T12:52:10;25.40;61.20
17495;DHT22;8864;51.970;4.614;2022-08-01T12:57:47;25.40;60.60
17495;DHT22;8864;51.970;4.614;2022-08-01T13:00:20;25.40;59.70
17495;DHT22;8864;51.970;4.614;2022-08-01T13:02:49;25.40;60.00
17495;DHT22;8864;51.970;4.614;2022-08-01T13:05:18;25.40;60.30
17495;DHT22;8864;51.970;4.614;2022-08-01T13:07:48;25.40;60.30
17495;DHT22;8864;51.970;4.614;2022-08-01T13:10:24;25.50;60.10
17495;DHT22;8864;51.970;4.614;2022-08-01T13:12:53;25.50;60.20
17495;DHT22;8864;51.970;4.614;2022-08-01T13:15:23;25.60;59.10
17495;DHT22;8864;51.970;4.614;2022-08-01T13:17:51;25.60;58.90
17495;DHT22;8864;51.970;4.614;2022-08-01T13:20:24;25.70;58.70
17495;DHT22;8864;51.970;4.614;2022-08-01T13:22:52;25.70;59.10
17495;DHT22;8864;51.970;4.614;2022-08-01T13:25:19;25.70;58.70
17495;DHT22;8864;51.970;4.614;2022-08-01T13:27:46;25.70;58.50
17495;DHT22;8864;51.970;4.614;2022-08-01T13:30:14;25.70;57.20
17495;DHT22;8864;51.970;4.614;2022-08-01T13:32:41;25.60;56.80
17495;DHT22;8864;51.970;4.614;2022-08-01T13:35:10;25.60;57.10
17495;DHT22;8864;51.970;4.614;2022-08-01T13:37:40;25.60;57.00
17495;DHT22;8864;51.970;4.614;2022-08-01T13:40:09;25.60;57.30
17495;DHT22;8864;51.970;4.614;2022-08-01T13:42:37;25.60;58.10
17495;DHT22;8864;51.970;4.614;2022-08-01T13:45:05;25.60;57.80
17495;DHT22;8864;51.970;4.614;2022-08-01T13:47:36;25.60;57.60
17495;DHT22;8864;51.970;4.614;2022-08-01T13:50:03;25.60;57.60
17495;DHT22;8864;51.970;4.614;2022-08-01T13:52:30;25.60;57.30
17495;DHT22;8864;51.970;4.614;2022-08-01T13:54:59;25.60;56.90
17495;DHT22;8864;51.970;4.614;2022-08-01T13:57:27;25.60;56.60
17495;DHT22;8864;51.970;4.614;2022-08-01T13:59:54;25.60;56.60
17495;DHT22;8864;51.970;4.614;2022-08-01T14:02:23;25.60;57.30
17495;DHT22;8864;51.970;4.614;2022-08-01T14:04:50;25.60;56.90
17495;DHT22;8864;51.970;4.614;2022-08-01T14:07:17;25.70;57.10
17495;DHT22;8864;51.970;4.614;2022-08-01T14:09:44;25.70;56.00
17495;DHT22;8864;51.970;4.614;2022-08-01T14:12:12;25.80;56.40
17495;DHT22;8864;51.970;4.614;2022-08-01T14:14:39;25.80;55.60
17495;DHT22;8864;51.970;4.614;2022-08-01T14:17:06;25.80;55.80
17495;DHT22;8864;51.970;4.614;2022-08-01T14:19:33;25.80;56.30
17495;DHT22;8864;51.970;4.614;2022-08-01T14:22:00;25.90;55.60
17495;DHT22;8864;51.970;4.614;2022-08-01T14:24:27;25.90;55.30
17495;DHT22;8864;51.970;4.614;2022-08-01T14:26:54;25.90;54.90
17495;DHT22;8864;51.970;4.614;2022-08-01T14:29:22;25.90;55.20
17495;DHT22;8864;51.970;4.614;2022-08-01T14:31:49;26.00;55.10
17495;DHT22;8864;51.970;4.614;2022-08-01T14:34:16;26.00;55.20
17495;DHT22;8864;51.970;4.614;2022-08-01T14:36:42;26.00;55.50
17495;DHT22;8864;51.970;4.614;2022-08-01T14:39:09;26.10;56.20
17495;DHT22;8864;51.970;4.614;2022-08-01T14:41:36;26.10;57.40
17495;DHT22;8864;51.970;4.614;2022-08-01T14:44:03;26.20;57.30
17495;DHT22;8864;51.970;4.614;2022-08-01T14:46:32;26.20;57.30
17495;DHT22;8864;51.970;4.614;2022-08-01T14:48:59;26.20;57.30
17495;DHT22;8864;51.970;4.614;2022-08-01T14:51:26;26.30;57.40
17495;DHT22;8864;51.970;4.614;2022-08-01T14:53:58;26.30;57.40
17495;DHT22;8864;51.970;4.614;2022-08-01T14:56:25;26.30;57.40
17495;DHT22;8864;51.970;4.614;2022-08-01T14:58:52;26.30;57.50
17495;DHT22;8864;51.970;4.614;2022-08-01T15:01:19;26.30;57.50
17495;DHT22;8864;51.970;4.614;2022-08-01T15:03:47;26.40;57.60
17495;DHT22;8864;51.970;4.614;2022-08-01T15:06:16;26.40;57.60
17495;DHT22;8864;51.970;4.614;2022-08-01T15:08:43;26.40;57.70
17495;DHT22;8864;51.970;4.614;2022-08-01T15:11:10;26.40;57.80
17495;DHT22;8864;51.970;4.614;2022-08-01T15:13:36;26.40;57.90
17495;DHT22;8864;51.970;4.614;2022-08-01T15:16:03;26.50;58.00
17495;DHT22;8864;51.970;4.614;2022-08-01T15:18:30;26.50;58.20
17495;DHT22;8864;51.970;4.614;2022-08-01T15:20:58;26.50;58.20
17495;DHT22;8864;51.970;4.614;2022-08-01T15:23:25;26.50;58.20
17495;DHT22;8864;51.970;4.614;2022-08-01T15:25:52;26.50;58.20
17495;DHT22;8864;51.970;4.614;2022-08-01T15:28:19;26.50;58.10
17495;DHT22;8864;51.970;4.614;2022-08-01T15:30:45;26.50;57.90
17495;DHT22;8864;51.970;4.614;2022-08-01T15:33:12;26.50;57.90
17495;DHT22;8864;51.970;4.614;2022-08-01T15:35:39;26.60;57.90
17495;DHT22;8864;51.970;4.614;2022-08-01T15:38:09;26.50;57.80
17495;DHT22;8864;51.970;4.614;2022-08-01T15:40:36;26.60;57.80
17495;DHT22;8864;51.970;4.614;2022-08-01T15:43:03;26.60;57.80
17495;DHT22;8864;51.970;4.614;2022-08-01T15:45:30;26.60;57.80
17495;DHT22;8864;51.970;4.614;2022-08-01T15:47:57;26.60;57.60
17495;DHT22;8864;51.970;4.614;2022-08-01T15:50:23;26.70;57.60
17495;DHT22;8864;51.970;4.614;2022-08-01T15:52:50;26.60;57.60
17495;DHT22;8864;51.970;4.614;2022-08-01T15:55:18;26.60;57.60
17495;DHT22;8864;51.970;4.614;2022-08-01T15:57:45;26.70;57.60
17495;DHT22;8864;51.970;4.614;2022-08-01T16:00:12;26.60;57.50
17495;DHT22;8864;51.970;4.614;2022-08-01T16:02:40;26.70;57.60
17495;DHT22;8864;51.970;4.614;2022-08-01T16:05:08;26.70;57.50